Airfield :
LOGIN :

Register | Disclaimer

   EN    FR    IT 

 










Legend :    VFR   Marginal VFR   IFR   Intensive IFR   Very Intensive IFR
Visi :
Ceiling :
>= 8 km
>= 3000ft
5 to 8 km
1000 to 3000 ft
1500m to 5 km
500 to 1000 ft
800 to 1500m
200 to 500 ft
< 800m
< 200 ft
Symbols :   Thunderstorms  Fog  Heavy snow  Heavy precipitations  Wind > 20 kt
SIGMETs :     Misc.  Thunderstorms  Icing  Turbulence  Mountain Waves  Volcanic Ashes







- Airport Elevation : 290 ft
- IATA code : ACI
- Download approach charts


EGJA - Alderney

CURRENT METAR :
  • 260950Z 07022KT 0400 R08/0600 FG VV/// 16/15 Q1024

EXPIRED METARs :
  • 260920Z 06020KT 0400 R08/0600 FG VV/// 16/16 Q1023
  • 260850Z 06021KT 0100 R08/0175 FG VV/// 16/15 Q1023
  • 260820Z 07021KT 0100 R08/0175 FG VV/// 16/16 Q1024
  • 260750Z 08020KT 0800 R08/0900 FG SCT000 BKN001 16/16 Q1024
  • 260720Z 08020KT 5000 BR BKN003 16/16 Q1023

TAF AMD TAF EGJA
Valid from the 26 at 09:00 until the 26 at 18:00 UTC


260840Z 2609/2618 07020G32KT 4000 BR BKN004
TEMPO 2609/2611 0100 FG BKN000
PROB40
TEMPO 2609/2611 6000 SHRA BKN008 BKN060CB
TEMPO 2611/2614 7000 BKN010
BECMG 2614/2616 07026G40KT 9999 SCT005
No reported NOTAMs for that airfield.



MET'MAP, your aeronautical weather chart ! - Copyright ORBIFLY December 2007 - Disclaimer

ORBIFLY MET'MAP TEAM :

Programming & Development : Alexandra Zaïnal
Concept & Development : Baudouin d'Aumeries
Co-Development & Prog : Marc-Olivier Méhu
Technical & hardware support : Manuel Goepfert

Contact : metmap@orbifly.com




SOURCES & CREDITS :

   NOAA